Skip to content.

Wairarapa Tararua

  

Alfredton South - ASO

Logged in to unit HSN12276 as: Guest
(Last data received Wed 21 Feb 2018 08:31:04 - 3 minutes ago)

All FWI Graphs Forecast Hourly FWI Daily FWI Download FWI Data

Hourly FWI Logs | Period From 08:31 20/02/2018 to 08:31 21/02/2018

Change the DoC% for the 24hr period starting 12:00pm 20/2/2018 to

If the date above is the current day, then all future logs will inherit this value until such time as it is changed again. If you wish to change historic values you can do so by going back to the day you want to alter (navigate via the graphs) and change the DoC% there (however this will only affect that day).

WindRainHourly FWIsDaily FWIsForestGrassScrub
DateTime (NZST)Temp (C)RH (%)Dir (deg)Speed (km/h)Hourly (mm)Daily (mm)FFMCISIHFWIFFMCDMCDCISIBUIFWIDSRROS (m/h)FFI (kW/m)FFDCDoC (%)ROS (m/h)GFI (kW/m)GFDCROS (m/h)SFI (kW/m)SFDC
21/02/2018 0700 17.9 69.0 306 24.0 0.0 73.8 2.4 3.4 48 27 M 65 63 110 M 490 4896 E
21/02/2018 0600 17.6 69.9 295 28.2 0.0 72.5 2.8 4.0 60 34 M 65 81 141 M 599 5988 E
21/02/2018 0500 18.1 72.6 302 28.6 0.0 71.0 2.7 3.9 57 32 M 65 77 134 M 574 5741 E
21/02/2018 0400 18.2 74.1 294 29.4 0.0 69.5 2.7 3.8 56 32 M 65 75 132 M 567 5673 E
21/02/2018 0300 18.3 81.6 297 26.9 0.2 67.8 2.3 3.1 43 24 M 65 56 99 M 448 4477 E
21/02/2018 0200 18.4 85.3 306 38.1 0.0 70.1 4.3 6.1 111 63 M 65 157 275 M 1011 10107 E
21/02/2018 0100 19.8 75.3 302 44.7 0.0 69.1 7.3 9.9 228 129 M 65 357 625 H 1833 18333 E
21/02/2018 0000 19.6 77.5 302 44.7 0.0 67.0 6.8 9.3 209 119 M 65 323 564 H 1709 17087 E
20/02/2018 2300 21.0 74.1 315 45.1 0.0 64.8 6.3 8.7 188 107 M 65 285 500 M 1568 15681 E
20/02/2018 2200 21.6 71.0 303 48.9 0.0 61.9 5.5 7.7 157 89 M 65 232 406 M 1351 13514 E
20/02/2018 2100 22.4 67.8 304 53.0 0.0 58.2 4.3 6.2 114 65 M 65 161 283 M 1031 10307 E
20/02/2018 2000 24.2 63.6 320 48.9 0.0 53.4 2.9 4.1 62 35 M 65 83 146 M 615 6149 E
20/02/2018 1900 25.8 60.6 327 54.6 0.0 47.4 1.4 1.5 20 11 M 65 26 45 M 233 2332 V
20/02/2018 1800 25.8 66.9 350 23.2 0.0 39.7 0.1 0.1 0 0 L 65 0 1 L 5 52 M
20/02/2018 1700 25.9 66.6 337 24.8 0.0 33.8 0.0 0.0 0 0 L 65 0 0 L 1 9 L
20/02/2018 1600 25.6 74.4 18 6.2 0.0 27.5 0.0 0.0 0 0 L 65 0 0 L 0 0 L
20/02/2018 1500 29.0 56.6 355 19.0 0.0 23.7 0.0 0.0 0 0 L 65 0 0 L 0 0 L
20/02/2018 1400 27.3 72.2 0 11.2 0.2 15.8 0.0 0.0 0 0 L 65 0 0 L 0 0 L
20/02/2018 1300 25.0 82.2 22 8.3 0.0 11.2 0.0 0.0 0 0 L 65 0 0 L 0 0 L
20/02/2018 1200 23.4 88.7 358 7.5 0.0 11.6 8.0 0.0 0.0 37.5 8.7 348.8 0.0 16.4 0.0 0.0 0 0 L 65 0 0 L 0 0 L
20/02/2018 1100 20.7 96.9 316 4.1 0.0 5.8 0.0 0.0 0 0 L 65 0 0 L 0 0 L
20/02/2018 1000 19.2 99.1 118 2.5 0.0 5.3 0.0 0.0 0 0 L 65 0 0 L 0 0 L
20/02/2018 0900 18.4 100.0 281 6.6 1.0 5.2 0.0 0.0 0 0 L 65 0 0 L 0 0 L
20/02/2018 0800 18.0 100.0 266 7.5 1.4 6.9 0.0 0.0 0 0 L 65 0 0 L 0 0 L